Time;durP1;ratioP1;P1;durP2;ratioP2;P2;SDS_P1;SDS_P2;PMS_P1;PMS_P2;Temp;Humidity;BMP_temperature;BMP_pressure;BME280_temperature;BME280_humidity;BME280_pressure;Samples;Min_cycle;Max_cycle;Signal;HPM_P1;HPM_P2
2023/10/28 00:00:29;;;;;;;;;;;14.90;99.90;;;;;;4922795;29;19918;-80
2023/10/28 00:02:55;;;;;;;;;;;14.90;99.90;;;;;;4937227;29;19914;-78
2023/10/28 00:05:20;;;;;;;;;;;14.80;99.90;;;;;;4937272;29;19914;-78
2023/10/28 00:07:46;;;;;;;;;;;14.70;99.90;;;;;;4937890;29;19962;-80
2023/10/28 00:10:11;;;;;;;;;;;14.70;99.90;;;;;;4929285;29;19974;-80
2023/10/28 00:12:37;;;;;;;;;;;14.80;99.90;;;;;;4935600;29;19896;-85
2023/10/28 00:15:03;;;;;;;;;;;14.80;99.90;;;;;;4947082;29;19911;-80
2023/10/28 00:17:29;;;;;;;;;;;14.80;99.90;;;;;;4916857;29;20280;-79
2023/10/28 00:19:54;;;;;;;;;;;14.80;99.90;;;;;;4917763;29;20021;-85
2023/10/28 00:22:21;;;;;;;;;;;14.80;99.90;;;;;;4918377;29;19907;-81
2023/10/28 00:24:47;;;;;;;;;;;14.90;99.90;;;;;;4916782;29;19911;-85
2023/10/28 00:27:13;;;;;;;;;;;14.90;99.90;;;;;;4919074;29;19907;-86
2023/10/28 00:29:40;;;;;;;;;;;14.70;99.90;;;;;;4917052;29;19907;-82
2023/10/28 00:32:06;;;;;;;;;;;14.00;99.90;;;;;;4918064;29;19911;-78
2023/10/28 00:34:32;;;;;;;;;;;13.70;99.90;;;;;;4916947;29;19907;-80
2023/10/28 00:37:01;;;;;;;;;;;13.60;99.90;;;;;;4916996;29;19977;-78
2023/10/28 00:39:26;;;;;;;;;;;13.20;99.90;;;;;;4917828;29;19919;-85
2023/10/28 00:41:52;;;;;;;;;;;12.90;99.90;;;;;;4916596;29;20371;-86
2023/10/28 00:44:17;;;;;;;;;;;12.70;99.90;;;;;;4916763;29;20363;-85
2023/10/28 00:46:43;;;;;;;;;;;12.70;99.90;;;;;;4917879;29;19907;-79
2023/10/28 00:49:09;;;;;;;;;;;12.70;99.90;;;;;;4928634;29;19906;-81
2023/10/28 00:51:35;;;;;;;;;;;12.80;99.90;;;;;;4920167;29;20299;-79
2023/10/28 00:54:01;;;;;;;;;;;12.90;99.90;;;;;;4916661;29;19907;-86
2023/10/28 00:56:26;;;;;;;;;;;12.90;99.90;;;;;;4917513;29;19917;-86
2023/10/28 00:58:52;;;;;;;;;;;13.00;99.90;;;;;;4916218;29;19907;-85
2023/10/28 01:01:19;;;;;;;;;;;13.00;99.90;;;;;;4916306;29;19913;-79
2023/10/28 01:03:45;;;;;;;;;;;13.10;99.90;;;;;;4916427;29;19918;-86
2023/10/28 01:06:12;;;;;;;;;;;13.10;99.90;;;;;;4915521;29;19911;-86
2023/10/28 01:08:38;;;;;;;;;;;13.30;99.90;;;;;;4916086;29;19907;-80
2023/10/28 01:11:03;;;;;;;;;;;13.50;99.90;;;;;;4923812;29;20369;-77
2023/10/28 01:13:30;;;;;;;;;;;13.80;99.90;;;;;;4917251;29;19978;-86
2023/10/28 01:15:55;;;;;;;;;;;14.00;99.90;;;;;;4922512;29;19921;-78
2023/10/28 01:18:21;;;;;;;;;;;13.90;99.90;;;;;;4946724;29;19907;-81
2023/10/28 01:20:47;;;;;;;;;;;13.80;99.90;;;;;;4922307;29;19915;-78
2023/10/28 01:23:12;;;;;;;;;;;13.90;99.90;;;;;;4916114;29;19957;-86
2023/10/28 01:25:38;;;;;;;;;;;13.90;99.90;;;;;;4915891;29;19922;-80
2023/10/28 01:28:03;;;;;;;;;;;13.90;99.90;;;;;;4915795;29;19907;-87
2023/10/28 01:30:29;;;;;;;;;;;13.80;99.90;;;;;;4917287;29;19994;-80
2023/10/28 01:32:55;;;;;;;;;;;13.70;99.90;;;;;;4916403;29;20006;-80
2023/10/28 01:35:20;;;;;;;;;;;13.80;99.90;;;;;;4917425;29;19907;-81
2023/10/28 01:37:46;;;;;;;;;;;13.80;99.90;;;;;;4917151;29;19994;-81
2023/10/28 01:40:14;;;;;;;;;;;13.80;99.90;;;;;;4937291;29;19895;-80
2023/10/28 01:42:40;;;;;;;;;;;13.70;99.90;;;;;;4915159;29;19915;-84
2023/10/28 01:45:07;;;;;;;;;;;13.60;99.90;;;;;;4916178;29;19915;-82
2023/10/28 01:47:33;;;;;;;;;;;13.40;99.90;;;;;;4916096;29;20445;-80
2023/10/28 01:49:59;;;;;;;;;;;13.30;99.90;;;;;;4915472;29;19907;-82
2023/10/28 01:52:24;;;;;;;;;;;13.30;99.90;;;;;;4915874;29;19907;-82
2023/10/28 01:54:51;;;;;;;;;;;13.30;99.90;;;;;;4915968;29;20366;-80
2023/10/28 01:57:17;;;;;;;;;;;13.20;99.90;;;;;;4916789;29;19910;-81
2023/10/28 01:59:44;;;;;;;;;;;13.20;99.90;;;;;;4917218;29;20002;-81
2023/10/28 02:02:09;;;;;;;;;;;13.20;99.90;;;;;;4917136;29;20404;-85
2023/10/28 02:04:35;;;;;;;;;;;13.30;99.90;;;;;;4917137;29;19962;-81
2023/10/28 02:07:01;;;;;;;;;;;13.30;99.90;;;;;;4926548;29;19915;-84
2023/10/28 02:09:27;;;;;;;;;;;13.40;99.90;;;;;;4918853;29;19919;-79
2023/10/28 02:11:53;;;;;;;;;;;13.40;99.90;;;;;;4911268;29;19907;-81
2023/10/28 02:14:19;;;;;;;;;;;13.50;99.90;;;;;;4917295;29;20445;-81
2023/10/28 02:16:45;;;;;;;;;;;13.60;99.90;;;;;;4916644;29;19939;-84
2023/10/28 02:19:11;;;;;;;;;;;13.70;99.90;;;;;;4918652;29;19919;-85
2023/10/28 02:21:36;;;;;;;;;;;13.80;99.90;;;;;;4918995;29;19907;-82
2023/10/28 02:24:05;;;;;;;;;;;13.80;99.90;;;;;;4921363;29;20442;-80
2023/10/28 02:26:30;;;;;;;;;;;13.80;99.90;;;;;;4931309;29;19981;-80
2023/10/28 02:28:56;;;;;;;;;;;13.80;99.90;;;;;;4918790;29;19915;-79
2023/10/28 02:31:22;;;;;;;;;;;13.80;99.90;;;;;;4920317;29;19914;-84
2023/10/28 02:33:47;;;;;;;;;;;13.80;99.90;;;;;;4919069;29;19964;-80
2023/10/28 02:36:12;;;;;;;;;;;13.80;99.90;;;;;;4920035;29;19907;-80
2023/10/28 02:38:40;;;;;;;;;;;13.70;99.90;;;;;;4917872;29;19983;-81
2023/10/28 02:41:06;;;;;;;;;;;13.60;99.90;;;;;;4884084;29;19917;-81
2023/10/28 02:43:35;;;;;;;;;;;13.60;99.90;;;;;;4884294;29;19911;-85
2023/10/28 02:46:01;;;;;;;;;;;13.60;99.90;;;;;;4901212;29;19911;-80
2023/10/28 02:48:27;;;;;;;;;;;13.60;99.90;;;;;;4893588;29;19920;-80
2023/10/28 02:50:53;;;;;;;;;;;13.50;99.90;;;;;;4918259;29;19913;-80
2023/10/28 02:53:19;;;;;;;;;;;13.60;99.90;;;;;;4918713;29;20001;-80
2023/10/28 02:55:44;;;;;;;;;;;13.60;99.90;;;;;;4918588;29;19911;-80
2023/10/28 02:58:10;;;;;;;;;;;13.60;99.90;;;;;;4923572;29;19920;-80
2023/10/28 03:00:35;;;;;;;;;;;13.60;99.90;;;;;;4921477;29;19963;-80
2023/10/28 03:03:02;;;;;;;;;;;13.70;99.90;;;;;;4918373;29;20383;-80
2023/10/28 03:05:29;;;;;;;;;;;13.80;99.90;;;;;;4935657;29;19911;-80
2023/10/28 03:07:55;;;;;;;;;;;13.80;99.90;;;;;;4938340;29;19907;-85
2023/10/28 03:10:20;;;;;;;;;;;14.00;99.90;;;;;;4934150;29;20338;-81
2023/10/28 03:12:46;;;;;;;;;;;14.00;99.90;;;;;;4888319;29;19907;-81
2023/10/28 03:15:12;;;;;;;;;;;14.00;99.90;;;;;;4883888;29;19955;-81
2023/10/28 03:17:38;;;;;;;;;;;14.10;99.90;;;;;;4900324;29;19923;-85
2023/10/28 03:20:05;;;;;;;;;;;14.00;99.90;;;;;;4922260;29;19919;-81
2023/10/28 03:22:30;;;;;;;;;;;14.00;99.90;;;;;;4917592;29;19907;-81
2023/10/28 03:24:56;;;;;;;;;;;14.00;99.90;;;;;;4917988;29;19915;-86
2023/10/28 03:27:22;;;;;;;;;;;14.00;99.90;;;;;;4917919;29;19907;-86
2023/10/28 03:29:49;;;;;;;;;;;14.00;99.90;;;;;;4918820;29;19907;-81
2023/10/28 03:32:15;;;;;;;;;;;14.00;99.90;;;;;;4919225;29;19907;-81
2023/10/28 03:34:40;;;;;;;;;;;14.00;99.90;;;;;;4924277;29;19914;-80
2023/10/28 03:37:06;;;;;;;;;;;14.00;99.90;;;;;;4919290;29;20398;-86
2023/10/28 03:39:32;;;;;;;;;;;14.00;99.90;;;;;;4919287;29;19911;-86
2023/10/28 03:41:57;;;;;;;;;;;13.90;99.90;;;;;;4919171;29;19934;-86
2023/10/28 03:44:23;;;;;;;;;;;13.70;99.90;;;;;;4919230;29;19914;-85
2023/10/28 03:46:49;;;;;;;;;;;13.70;99.90;;;;;;4917570;29;19914;-81
2023/10/28 03:49:18;;;;;;;;;;;13.80;99.90;;;;;;4938903;29;19895;-84
2023/10/28 03:51:44;;;;;;;;;;;13.80;99.90;;;;;;4931490;29;19918;-85
2023/10/28 03:54:09;;;;;;;;;;;13.80;99.90;;;;;;4917228;29;19907;-80
2023/10/28 03:56:35;;;;;;;;;;;13.60;99.90;;;;;;4918310;29;19918;-86
2023/10/28 03:59:00;;;;;;;;;;;13.50;99.90;;;;;;4918877;29;19914;-84
2023/10/28 04:01:26;;;;;;;;;;;13.40;99.90;;;;;;4918885;29;20374;-80
2023/10/28 04:03:51;;;;;;;;;;;13.30;99.90;;;;;;4918616;29;19958;-80
2023/10/28 04:06:17;;;;;;;;;;;13.30;99.90;;;;;;4918413;29;19926;-86
2023/10/28 04:08:42;;;;;;;;;;;13.30;99.90;;;;;;4917038;29;19918;-81
2023/10/28 04:11:10;;;;;;;;;;;13.30;99.90;;;;;;4918763;29;19970;-85
2023/10/28 04:13:35;;;;;;;;;;;13.20;99.90;;;;;;4901949;29;19963;-82
2023/10/28 04:16:01;;;;;;;;;;;13.20;99.90;;;;;;4915542;29;19896;-81
2023/10/28 04:18:26;;;;;;;;;;;13.20;99.90;;;;;;4910236;29;19926;-85
2023/10/28 04:20:52;;;;;;;;;;;13.20;99.90;;;;;;4917033;29;19997;-80
2023/10/28 04:23:17;;;;;;;;;;;13.20;99.90;;;;;;4918355;29;19931;-86
2023/10/28 04:25:43;;;;;;;;;;;13.20;99.90;;;;;;4918495;29;19942;-81
2023/10/28 04:28:08;;;;;;;;;;;13.10;99.90;;;;;;4918942;29;19954;-83
2023/10/28 04:30:34;;;;;;;;;;;13.10;99.90;;;;;;4917451;29;20379;-81
2023/10/28 04:33:00;;;;;;;;;;;13.00;99.90;;;;;;4918264;29;19907;-81
2023/10/28 04:35:25;;;;;;;;;;;13.00;99.90;;;;;;4918050;29;19962;-84
2023/10/28 04:37:51;;;;;;;;;;;12.90;99.90;;;;;;4917150;29;20378;-85
2023/10/28 04:40:16;;;;;;;;;;;12.90;99.90;;;;;;4914709;29;20394;-83
2023/10/28 04:42:42;;;;;;;;;;;12.90;99.90;;;;;;4936094;29;19899;-84
2023/10/28 04:45:10;;;;;;;;;;;12.90;99.90;;;;;;4920288;29;19915;-80
2023/10/28 04:47:36;;;;;;;;;;;12.80;99.90;;;;;;4916734;29;19954;-80
2023/10/28 04:50:01;;;;;;;;;;;12.80;99.90;;;;;;4918211;29;19962;-85
2023/10/28 04:52:27;;;;;;;;;;;12.80;99.90;;;;;;4916359;29;20282;-85
2023/10/28 04:54:53;;;;;;;;;;;12.70;99.90;;;;;;4916303;29;19907;-80
2023/10/28 04:57:18;;;;;;;;;;;12.70;99.90;;;;;;4917555;29;20389;-85
2023/10/28 04:59:44;;;;;;;;;;;12.70;99.90;;;;;;4916335;29;19906;-85
2023/10/28 05:02:11;;;;;;;;;;;12.60;99.90;;;;;;4916410;29;19974;-85
2023/10/28 05:04:37;;;;;;;;;;;12.60;99.90;;;;;;4916034;29;19918;-81
2023/10/28 05:07:04;;;;;;;;;;;12.60;99.90;;;;;;4917010;29;20298;-85
2023/10/28 05:09:29;;;;;;;;;;;12.60;99.90;;;;;;4917880;29;19913;-85
2023/10/28 05:11:56;;;;;;;;;;;12.60;99.90;;;;;;4917771;29;20379;-81
2023/10/28 05:14:22;;;;;;;;;;;12.50;99.90;;;;;;4916395;29;19913;-84
2023/10/28 05:16:47;;;;;;;;;;;12.50;99.90;;;;;;4915666;29;19911;-85
2023/10/28 05:19:13;;;;;;;;;;;12.40;99.90;;;;;;4936657;29;19918;-85
2023/10/28 05:21:38;;;;;;;;;;;12.30;99.90;;;;;;4936084;29;19941;-85
2023/10/28 05:24:04;;;;;;;;;;;12.30;99.90;;;;;;4934923;29;20430;-85
2023/10/28 05:26:29;;;;;;;;;;;12.30;99.90;;;;;;4936387;29;19911;-84
2023/10/28 05:28:57;;;;;;;;;;;12.20;99.90;;;;;;4938443;29;20424;-81
2023/10/28 05:31:24;;;;;;;;;;;12.20;99.90;;;;;;4952450;28;19921;-81
2023/10/28 05:33:50;;;;;;;;;;;12.20;99.90;;;;;;4955295;29;19906;-84
2023/10/28 05:36:16;;;;;;;;;;;12.30;99.90;;;;;;4953173;29;20396;-85
2023/10/28 05:38:42;;;;;;;;;;;12.40;99.90;;;;;;4936462;29;19914;-80
2023/10/28 05:41:09;;;;;;;;;;;12.50;99.90;;;;;;4928912;29;20386;-82
2023/10/28 05:43:34;;;;;;;;;;;12.60;99.90;;;;;;4917225;29;19907;-85
2023/10/28 05:46:00;;;;;;;;;;;12.60;99.90;;;;;;4915712;29;19918;-81
2023/10/28 05:48:26;;;;;;;;;;;12.60;99.90;;;;;;4915821;29;19918;-81
2023/10/28 05:50:52;;;;;;;;;;;12.70;99.90;;;;;;4951961;28;19969;-81
2023/10/28 05:53:18;;;;;;;;;;;12.80;99.90;;;;;;4941536;29;19906;-80
2023/10/28 05:55:43;;;;;;;;;;;12.80;99.90;;;;;;4942133;29;19993;-81
2023/10/28 05:58:09;;;;;;;;;;;12.90;99.90;;;;;;4941754;29;20358;-81
2023/10/28 06:00:34;;;;;;;;;;;13.00;99.90;;;;;;4963174;28;19891;-84
2023/10/28 06:03:00;;;;;;;;;;;13.00;99.90;;;;;;4978084;28;19914;-81
2023/10/28 06:05:25;;;;;;;;;;;13.10;99.90;;;;;;4941492;29;20366;-85
2023/10/28 06:07:51;;;;;;;;;;;13.20;99.90;;;;;;4959052;29;19907;-85
2023/10/28 06:10:16;;;;;;;;;;;13.20;99.90;;;;;;4937435;29;19907;-80
2023/10/28 06:12:42;;;;;;;;;;;13.30;99.90;;;;;;4926184;29;19954;-86
2023/10/28 06:15:08;;;;;;;;;;;13.40;99.90;;;;;;4916466;29;19954;-81
2023/10/28 06:17:35;;;;;;;;;;;13.40;99.90;;;;;;4933403;29;19915;-85
2023/10/28 06:20:00;;;;;;;;;;;13.40;99.90;;;;;;4920131;29;19915;-85
2023/10/28 06:22:26;;;;;;;;;;;13.50;99.90;;;;;;4916539;29;19911;-80
2023/10/28 06:24:53;;;;;;;;;;;13.50;99.90;;;;;;4919777;29;19930;-85
2023/10/28 06:27:19;;;;;;;;;;;13.40;99.90;;;;;;4918706;29;19911;-84
2023/10/28 06:29:44;;;;;;;;;;;13.40;99.90;;;;;;4920479;29;19962;-81
2023/10/28 06:32:10;;;;;;;;;;;13.40;99.90;;;;;;4921946;29;20367;-81
2023/10/28 06:34:35;;;;;;;;;;;13.50;99.90;;;;;;4919223;29;19911;-84
2023/10/28 06:37:01;;;;;;;;;;;13.50;99.90;;;;;;4920604;29;20353;-84
2023/10/28 06:39:26;;;;;;;;;;;13.50;99.90;;;;;;4918179;29;19915;-81
2023/10/28 06:41:52;;;;;;;;;;;13.50;99.90;;;;;;4917734;29;19931;-80
2023/10/28 06:44:19;;;;;;;;;;;13.60;99.90;;;;;;4918998;29;19957;-81
2023/10/28 06:46:45;;;;;;;;;;;13.60;99.90;;;;;;4920089;29;20062;-81
2023/10/28 06:49:11;;;;;;;;;;;13.60;99.90;;;;;;4931806;29;20347;-80
2023/10/28 06:51:37;;;;;;;;;;;13.60;99.90;;;;;;4918561;29;19927;-81
2023/10/28 06:54:03;;;;;;;;;;;13.60;99.90;;;;;;4918523;29;20401;-80
2023/10/28 06:56:29;;;;;;;;;;;13.70;99.90;;;;;;4918499;29;19914;-85
2023/10/28 06:58:54;;;;;;;;;;;13.70;99.90;;;;;;4918860;29;19907;-81
2023/10/28 07:01:20;;;;;;;;;;;13.70;99.90;;;;;;4926743;29;19978;-82
2023/10/28 07:03:46;;;;;;;;;;;13.70;99.90;;;;;;4918765;29;19907;-81
2023/10/28 07:06:14;;;;;;;;;;;13.80;99.90;;;;;;4918156;29;20365;-81
2023/10/28 07:08:42;;;;;;;;;;;13.80;99.90;;;;;;4919497;29;19914;-85
2023/10/28 07:11:10;;;;;;;;;;;13.80;99.90;;;;;;4924367;29;19914;-81
2023/10/28 07:13:36;;;;;;;;;;;13.80;99.90;;;;;;4927082;29;19919;-81
2023/10/28 07:16:02;;;;;;;;;;;13.90;99.90;;;;;;4918248;29;19961;-81
2023/10/28 07:18:29;;;;;;;;;;;13.90;99.90;;;;;;4937828;29;19915;-81
2023/10/28 07:20:55;;;;;;;;;;;13.90;99.90;;;;;;4940453;29;19914;-81
2023/10/28 07:23:20;;;;;;;;;;;13.90;99.90;;;;;;4946613;28;20290;-85
2023/10/28 07:25:46;;;;;;;;;;;14.00;99.90;;;;;;4957305;29;20413;-81
2023/10/28 07:28:14;;;;;;;;;;;14.00;99.90;;;;;;4940019;29;19906;-81
2023/10/28 07:30:48;;;;;;;;;;;14.00;99.90;;;;;;4961656;29;20004;-81
2023/10/28 07:33:14;;;;;;;;;;;14.00;99.90;;;;;;4957812;29;19914;-81
2023/10/28 07:35:50;;;;;;;;;;;14.00;99.90;;;;;;4939932;29;20392;-85
2023/10/28 07:38:16;;;;;;;;;;;14.00;99.90;;;;;;4933712;29;19921;-84
2023/10/28 07:40:42;;;;;;;;;;;14.00;99.90;;;;;;4933404;29;19911;-82
2023/10/28 07:43:10;;;;;;;;;;;14.00;99.90;;;;;;4917903;29;20377;-85
2023/10/28 07:45:35;;;;;;;;;;;13.80;99.90;;;;;;4926399;29;19974;-80
2023/10/28 07:48:01;;;;;;;;;;;13.80;99.90;;;;;;4938134;29;19938;-80
2023/10/28 07:50:26;;;;;;;;;;;13.70;99.90;;;;;;4936693;29;19962;-85
2023/10/28 07:52:52;;;;;;;;;;;13.60;99.90;;;;;;4942943;29;19914;-85
2023/10/28 07:55:17;;;;;;;;;;;13.60;99.90;;;;;;4941728;29;20370;-80
2023/10/28 07:57:43;;;;;;;;;;;13.60;99.90;;;;;;4939709;29;19906;-80
2023/10/28 08:00:11;;;;;;;;;;;13.50;99.90;;;;;;4936461;29;19989;-85
2023/10/28 08:02:37;;;;;;;;;;;13.50;99.90;;;;;;4942249;29;19914;-81
2023/10/28 08:05:04;;;;;;;;;;;13.50;99.90;;;;;;4936721;29;20289;-81
2023/10/28 08:07:29;;;;;;;;;;;13.50;99.90;;;;;;4937610;29;19907;-81
2023/10/28 08:09:56;;;;;;;;;;;13.50;99.90;;;;;;4956581;28;19924;-80
2023/10/28 08:12:22;;;;;;;;;;;13.50;99.90;;;;;;4909285;29;19917;-85
2023/10/28 08:14:48;;;;;;;;;;;13.50;99.90;;;;;;4901528;29;20371;-80
2023/10/28 08:17:13;;;;;;;;;;;13.60;99.90;;;;;;4925404;29;19931;-81
2023/10/28 08:19:40;;;;;;;;;;;13.60;99.90;;;;;;4935823;29;19921;-81
2023/10/28 08:22:06;;;;;;;;;;;13.70;99.90;;;;;;4936216;29;19918;-81
2023/10/28 08:24:31;;;;;;;;;;;13.70;99.90;;;;;;4937552;29;20373;-85
2023/10/28 08:26:57;;;;;;;;;;;13.70;99.90;;;;;;4958834;29;19902;-83
2023/10/28 08:29:24;;;;;;;;;;;13.70;99.90;;;;;;4937697;29;19911;-84
2023/10/28 08:31:50;;;;;;;;;;;14.00;99.90;;;;;;4936122;29;20339;-81
2023/10/28 08:34:15;;;;;;;;;;;14.10;99.90;;;;;;4936033;29;19914;-81
2023/10/28 08:36:44;;;;;;;;;;;14.20;99.90;;;;;;4942096;29;19907;-81
2023/10/28 08:39:10;;;;;;;;;;;14.40;99.90;;;;;;4934812;29;19915;-85
2023/10/28 08:41:35;;;;;;;;;;;14.60;99.90;;;;;;4925323;29;19966;-86
2023/10/28 08:44:04;;;;;;;;;;;15.00;99.90;;;;;;4921960;29;20360;-80
2023/10/28 08:46:30;;;;;;;;;;;15.20;99.90;;;;;;4937887;29;19914;-80
2023/10/28 08:48:57;;;;;;;;;;;15.40;99.90;;;;;;4935381;29;20369;-79
2023/10/28 08:51:23;;;;;;;;;;;15.50;99.90;;;;;;4946824;28;19902;-80
2023/10/28 08:53:50;;;;;;;;;;;15.70;99.90;;;;;;4951971;28;20320;-85
2023/10/28 08:56:19;;;;;;;;;;;15.80;99.90;;;;;;4937193;29;20016;-81
2023/10/28 08:58:48;;;;;;;;;;;15.80;99.90;;;;;;4936125;29;19907;-80
2023/10/28 09:01:14;;;;;;;;;;;15.80;99.90;;;;;;4936967;29;19907;-80
2023/10/28 09:03:40;;;;;;;;;;;15.90;99.90;;;;;;4937797;29;19930;-85
2023/10/28 09:06:06;;;;;;;;;;;16.00;99.90;;;;;;4938489;29;19945;-86
2023/10/28 09:08:31;;;;;;;;;;;16.00;99.90;;;;;;4937605;29;19906;-84
2023/10/28 09:10:57;;;;;;;;;;;15.90;99.90;;;;;;4955675;29;20333;-82
2023/10/28 09:13:23;;;;;;;;;;;15.70;99.90;;;;;;4933606;29;19895;-84
2023/10/28 09:15:51;;;;;;;;;;;15.60;99.90;;;;;;4956714;29;19918;-79
2023/10/28 09:18:16;;;;;;;;;;;15.50;99.90;;;;;;4941862;29;19962;-88
2023/10/28 09:20:42;;;;;;;;;;;15.40;99.90;;;;;;4917559;29;19957;-86
2023/10/28 09:23:08;;;;;;;;;;;15.40;99.90;;;;;;4936454;29;19911;-80
2023/10/28 09:25:36;;;;;;;;;;;15.30;99.90;;;;;;4934868;29;19911;-80
2023/10/28 09:28:07;;;;;;;;;;;15.40;99.90;;;;;;4934432;29;20286;-85
2023/10/28 09:30:42;;;;;;;;;;;15.50;99.90;;;;;;4938187;29;20382;-87
2023/10/28 09:33:08;;;;;;;;;;;15.60;99.90;;;;;;4938075;29;19907;-87
2023/10/28 09:35:33;;;;;;;;;;;15.70;99.90;;;;;;4938078;29;20001;-80
2023/10/28 09:37:59;;;;;;;;;;;15.70;99.90;;;;;;4934097;29;19913;-80
2023/10/28 09:40:27;;;;;;;;;;;15.60;99.90;;;;;;4951231;29;19921;-81
2023/10/28 09:42:52;;;;;;;;;;;15.60;99.90;;;;;;4947358;29;19988;-81
2023/10/28 09:45:18;;;;;;;;;;;15.60;99.90;;;;;;4961417;28;19923;-84
2023/10/28 09:47:49;;;;;;;;;;;15.70;99.90;;;;;;4964314;28;19957;-86
2023/10/28 09:50:15;;;;;;;;;;;15.60;99.90;;;;;;4955420;29;19910;-85
2023/10/28 09:52:42;;;;;;;;;;;15.60;99.90;;;;;;4955286;29;19934;-81
2023/10/28 09:55:09;;;;;;;;;;;15.70;99.90;;;;;;4937547;29;19956;-81
2023/10/28 09:57:35;;;;;;;;;;;15.70;99.90;;;;;;4937787;29;20378;-82
2023/10/28 10:00:09;;;;;;;;;;;15.60;99.90;;;;;;4937867;29;20008;-86
2023/10/28 10:02:49;;;;;;;;;;;15.70;99.90;;;;;;4954560;29;20289;-87
2023/10/28 10:05:17;;;;;;;;;;;15.70;99.90;;;;;;4937751;29;19910;-82
2023/10/28 10:07:44;;;;;;;;;;;15.80;99.90;;;;;;4976069;28;19986;-86
2023/10/28 10:10:19;;;;;;;;;;;15.80;99.90;;;;;;4939450;29;19925;-81
2023/10/28 10:12:45;;;;;;;;;;;15.80;99.90;;;;;;4937786;29;20426;-86
2023/10/28 10:15:13;;;;;;;;;;;15.80;99.90;;;;;;4955132;29;19962;-81
2023/10/28 10:17:46;;;;;;;;;;;15.80;99.90;;;;;;4934274;29;19993;-81
2023/10/28 10:20:11;;;;;;;;;;;15.80;99.90;;;;;;4915529;29;19918;-81
2023/10/28 10:22:41;;;;;;;;;;;15.80;99.90;;;;;;4915253;29;20386;-86
2023/10/28 10:25:07;;;;;;;;;;;15.80;99.90;;;;;;4917253;29;20006;-83
2023/10/28 10:27:34;;;;;;;;;;;15.80;99.90;;;;;;4916945;29;19907;-81
2023/10/28 10:30:06;;;;;;;;;;;15.80;99.90;;;;;;4915326;29;19913;-88
2023/10/28 10:32:39;;;;;;;;;;;15.90;99.90;;;;;;4917199;29;19907;-86
2023/10/28 10:35:12;;;;;;;;;;;16.00;99.90;;;;;;4922456;29;19915;-81
2023/10/28 10:37:37;;;;;;;;;;;16.10;99.90;;;;;;4916334;29;19954;-85
2023/10/28 10:40:07;;;;;;;;;;;16.20;99.90;;;;;;4919045;29;19946;-87
2023/10/28 10:42:32;;;;;;;;;;;16.40;99.90;;;;;;4915975;29;19911;-80
2023/10/28 10:44:58;;;;;;;;;;;16.40;99.90;;;;;;4901881;29;19915;-86
2023/10/28 10:47:24;;;;;;;;;;;16.50;99.90;;;;;;4914239;29;20481;-83
2023/10/28 10:49:50;;;;;;;;;;;16.60;99.90;;;;;;4919619;29;19911;-84
2023/10/28 10:52:15;;;;;;;;;;;16.70;99.90;;;;;;4920541;29;19922;-87
2023/10/28 10:54:41;;;;;;;;;;;16.80;99.90;;;;;;4919701;29;20351;-87
2023/10/28 10:57:07;;;;;;;;;;;16.80;99.90;;;;;;4919878;29;19907;-85
2023/10/28 10:59:33;;;;;;;;;;;16.90;99.90;;;;;;4918690;29;19907;-87
2023/10/28 11:02:02;;;;;;;;;;;16.90;99.90;;;;;;4920289;29;19907;-87
2023/10/28 11:04:29;;;;;;;;;;;17.00;99.90;;;;;;4918437;29;19914;-86
2023/10/28 11:06:54;;;;;;;;;;;17.00;99.90;;;;;;4919690;29;19907;-86
2023/10/28 11:09:21;;;;;;;;;;;17.00;99.90;;;;;;4918081;29;19914;-81
2023/10/28 11:11:46;;;;;;;;;;;17.00;99.90;;;;;;4918370;29;19917;-80
2023/10/28 11:14:15;;;;;;;;;;;16.90;99.90;;;;;;4918429;29;20341;-83
2023/10/28 11:16:41;;;;;;;;;;;16.80;99.90;;;;;;4918681;29;19907;-84
2023/10/28 11:19:08;;;;;;;;;;;16.70;99.90;;;;;;4943464;29;19914;-86
2023/10/28 11:21:33;;;;;;;;;;;16.60;99.90;;;;;;4947534;29;19914;-82
2023/10/28 11:23:59;;;;;;;;;;;16.40;99.90;;;;;;4957437;29;19906;-85
2023/10/28 11:26:24;;;;;;;;;;;16.20;99.90;;;;;;4957307;29;19921;-81
2023/10/28 11:28:50;;;;;;;;;;;16.20;99.90;;;;;;4940232;29;19993;-86
2023/10/28 11:31:20;;;;;;;;;;;16.10;99.90;;;;;;4957714;29;19918;-86
2023/10/28 11:33:46;;;;;;;;;;;16.00;99.90;;;;;;4939973;29;19914;-81
2023/10/28 11:36:11;;;;;;;;;;;15.90;99.90;;;;;;4940034;29;20326;-81
2023/10/28 11:38:37;;;;;;;;;;;16.00;99.90;;;;;;4956477;29;19965;-86
2023/10/28 11:41:04;;;;;;;;;;;16.10;99.90;;;;;;4936837;29;20367;-79
2023/10/28 11:43:30;;;;;;;;;;;16.10;99.90;;;;;;4938179;29;19907;-85
2023/10/28 11:45:56;;;;;;;;;;;16.10;99.90;;;;;;4952968;29;19918;-84
2023/10/28 11:48:21;;;;;;;;;;;16.10;99.90;;;;;;4956697;29;20358;-85
2023/10/28 11:50:47;;;;;;;;;;;16.00;99.90;;;;;;4956956;28;19922;-85
2023/10/28 11:53:15;;;;;;;;;;;15.90;99.90;;;;;;4939980;29;19910;-85
2023/10/28 11:55:41;;;;;;;;;;;15.80;99.90;;;;;;4964873;28;19902;-79
2023/10/28 11:58:08;;;;;;;;;;;15.70;99.90;;;;;;4938254;29;20001;-79
2023/10/28 12:00:34;;;;;;;;;;;15.60;99.90;;;;;;4939496;29;19915;-80
2023/10/28 12:03:01;;;;;;;;;;;15.40;99.90;;;;;;4940057;29;19914;-84
2023/10/28 12:05:26;;;;;;;;;;;15.20;99.90;;;;;;4956969;29;19925;-84
2023/10/28 12:07:52;;;;;;;;;;;15.20;99.90;;;;;;4939614;29;19907;-84
2023/10/28 12:10:17;;;;;;;;;;;15.10;99.90;;;;;;4946434;29;19907;-81
2023/10/28 12:12:42;;;;;;;;;;;15.20;99.90;;;;;;4945567;28;19977;-80
2023/10/28 12:15:09;;;;;;;;;;;15.20;99.90;;;;;;4965525;28;19894;-81
2023/10/28 12:17:35;;;;;;;;;;;15.20;99.90;;;;;;4976900;28;19930;-82
2023/10/28 12:20:00;;;;;;;;;;;15.10;99.90;;;;;;4921260;29;19911;-85
2023/10/28 12:22:26;;;;;;;;;;;15.10;99.90;;;;;;4918413;29;19910;-86
2023/10/28 12:24:51;;;;;;;;;;;15.10;99.90;;;;;;4901103;29;19915;-85
2023/10/28 12:27:17;;;;;;;;;;;15.10;99.90;;;;;;4914433;29;19907;-80
2023/10/28 12:29:45;;;;;;;;;;;15.20;99.90;;;;;;4920248;29;19907;-85
2023/10/28 12:32:10;;;;;;;;;;;15.20;99.90;;;;;;4920040;29;20001;-80
2023/10/28 12:34:36;;;;;;;;;;;15.20;99.90;;;;;;4917575;29;19953;-86
2023/10/28 12:37:01;;;;;;;;;;;15.20;99.90;;;;;;4916848;29;20351;-80
2023/10/28 12:39:29;;;;;;;;;;;15.30;99.90;;;;;;4915952;29;19922;-82
2023/10/28 12:41:55;;;;;;;;;;;15.40;99.90;;;;;;4915615;29;19910;-80
2023/10/28 12:44:20;;;;;;;;;;;15.50;99.90;;;;;;4917715;29;19959;-80
2023/10/28 12:46:46;;;;;;;;;;;15.60;99.90;;;;;;4940431;29;19982;-85
2023/10/28 12:49:11;;;;;;;;;;;15.80;99.90;;;;;;4922852;29;19915;-87
2023/10/28 12:51:37;;;;;;;;;;;16.00;99.90;;;;;;4916781;29;20054;-83
2023/10/28 12:54:04;;;;;;;;;;;16.20;99.90;;;;;;4916868;29;20061;-81
2023/10/28 12:56:31;;;;;;;;;;;16.40;99.90;;;;;;4915822;29;19993;-81
2023/10/28 12:58:56;;;;;;;;;;;16.50;99.90;;;;;;4916261;29;19998;-81
2023/10/28 13:01:26;;;;;;;;;;;16.60;99.90;;;;;;4916597;29;20395;-81
2023/10/28 13:03:53;;;;;;;;;;;16.60;99.90;;;;;;4882673;29;19972;-86
2023/10/28 13:06:19;;;;;;;;;;;16.60;99.90;;;;;;4882219;29;19915;-85
2023/10/28 13:08:44;;;;;;;;;;;16.70;99.90;;;;;;4881898;29;19911;-80
2023/10/28 13:11:10;;;;;;;;;;;16.60;99.90;;;;;;4892064;29;19931;-86
2023/10/28 13:13:35;;;;;;;;;;;16.50;99.90;;;;;;4901468;29;20370;-85
2023/10/28 13:16:01;;;;;;;;;;;16.50;99.90;;;;;;4900444;29;19909;-87
2023/10/28 13:18:27;;;;;;;;;;;16.50;99.90;;;;;;4908598;29;19975;-81
2023/10/28 13:20:52;;;;;;;;;;;16.50;99.90;;;;;;4916042;29;19907;-85
2023/10/28 13:23:18;;;;;;;;;;;16.50;99.90;;;;;;4915988;29;20009;-86
2023/10/28 13:25:43;;;;;;;;;;;16.60;99.90;;;;;;4916110;29;19918;-81
2023/10/28 13:28:12;;;;;;;;;;;16.60;99.90;;;;;;4916259;29;19907;-87
2023/10/28 13:30:38;;;;;;;;;;;16.60;99.90;;;;;;4916198;29;19910;-81
2023/10/28 13:33:04;;;;;;;;;;;16.60;99.90;;;;;;4916307;29;19907;-82
2023/10/28 13:35:29;;;;;;;;;;;16.60;99.90;;;;;;4917045;29;19914;-85
2023/10/28 13:37:56;;;;;;;;;;;16.50;99.90;;;;;;4923436;29;19938;-84
2023/10/28 13:40:22;;;;;;;;;;;16.50;99.90;;;;;;4942171;29;19899;-83
2023/10/28 13:42:48;;;;;;;;;;;16.60;99.90;;;;;;4927999;29;19911;-81
2023/10/28 13:45:13;;;;;;;;;;;16.60;99.90;;;;;;4916110;29;19976;-81
2023/10/28 13:47:41;;;;;;;;;;;16.60;99.90;;;;;;4916915;29;19911;-85
2023/10/28 13:50:07;;;;;;;;;;;16.70;99.90;;;;;;4917151;29;19935;-85
2023/10/28 13:52:34;;;;;;;;;;;16.70;99.90;;;;;;4915758;29;19907;-86
2023/10/28 13:55:00;;;;;;;;;;;16.70;99.90;;;;;;4916004;29;19907;-81
2023/10/28 13:57:25;;;;;;;;;;;16.70;99.90;;;;;;4916942;29;19934;-80
2023/10/28 13:59:54;;;;;;;;;;;16.70;99.90;;;;;;4917351;29;19907;-86
2023/10/28 14:02:20;;;;;;;;;;;16.70;99.90;;;;;;4900874;29;19907;-81
2023/10/28 14:04:45;;;;;;;;;;;16.60;99.90;;;;;;4905241;29;19919;-84
2023/10/28 14:07:11;;;;;;;;;;;16.70;99.90;;;;;;4900521;29;19955;-86
2023/10/28 14:09:36;;;;;;;;;;;16.60;99.90;;;;;;4896710;29;19907;-82